createdAt,value
2022-11-14T00:00:07.978Z,20.48
2022-11-14T00:02:35.525Z,24.00
2022-11-14T00:05:02.254Z,22.90
2022-11-14T00:07:30.865Z,24.60
2022-11-14T00:09:57.483Z,19.90
2022-11-14T00:12:24.099Z,19.63
2022-11-14T00:14:51.733Z,21.38
2022-11-14T00:17:19.020Z,24.30
2022-11-14T00:19:45.703Z,21.63
2022-11-14T00:22:12.346Z,20.40
2022-11-14T00:24:38.910Z,20.08
2022-11-14T00:27:05.473Z,24.90
2022-11-14T00:29:32.234Z,21.85
2022-11-14T00:31:58.779Z,24.98
2022-11-14T00:34:25.455Z,26.42
2022-11-14T00:36:52.074Z,24.27
2022-11-14T00:39:18.760Z,21.63
2022-11-14T00:41:45.317Z,19.13
2022-11-14T00:44:11.996Z,27.33
2022-11-14T00:46:38.744Z,25.27
2022-11-14T00:49:05.494Z,27.73
2022-11-14T00:51:33.521Z,25.10
2022-11-14T00:54:03.422Z,22.02
2022-11-14T00:56:30.058Z,21.73
2022-11-14T00:58:56.634Z,25.95
2022-11-14T01:01:23.251Z,20.73
2022-11-14T01:03:51.257Z,18.98
2022-11-14T01:06:20.841Z,23.05
2022-11-14T01:08:49.901Z,22.05
2022-11-14T01:11:19.886Z,26.52
2022-11-14T01:13:46.870Z,24.33
2022-11-14T01:16:13.847Z,27.63
2022-11-14T01:18:44.443Z,21.52
2022-11-14T01:21:13.615Z,24.17
2022-11-14T01:23:40.376Z,25.02
2022-11-14T01:26:10.899Z,23.92
2022-11-14T01:28:38.153Z,22.75
2022-11-14T01:31:18.982Z,25.98
2022-11-14T01:33:49.405Z,23.80
2022-11-14T01:36:16.206Z,25.15
2022-11-14T01:38:42.865Z,23.17
2022-11-14T01:41:12.813Z,22.70
2022-11-14T01:43:40.105Z,27.50
2022-11-14T01:46:06.768Z,32.70
2022-11-14T01:48:36.845Z,29.70
2022-11-14T01:51:06.370Z,31.17
2022-11-14T01:53:33.023Z,26.65
2022-11-14T01:56:04.819Z,30.88
2022-11-14T01:58:34.213Z,28.98
2022-11-14T02:01:01.133Z,26.80
2022-11-14T02:03:28.240Z,31.38
2022-11-14T02:05:56.713Z,29.63
2022-11-14T02:08:25.287Z,27.08
2022-11-14T02:10:51.886Z,36.35
2022-11-14T02:13:18.554Z,27.88
2022-11-14T02:15:45.201Z,30.40
2022-11-14T02:18:12.451Z,31.33
2022-11-14T02:20:43.323Z,27.00
2022-11-14T02:23:11.794Z,28.73
2022-11-14T02:25:39.580Z,30.33
2022-11-14T02:28:07.949Z,27.88
2022-11-14T02:30:34.621Z,29.10
2022-11-14T02:33:16.543Z,30.30
2022-11-14T02:35:43.105Z,32.05
2022-11-14T02:38:09.767Z,31.70
2022-11-14T02:40:36.320Z,29.52
2022-11-14T02:43:02.906Z,36.63
2022-11-14T02:45:29.557Z,33.08
2022-11-14T02:47:56.220Z,36.67
2022-11-14T02:50:22.810Z,27.02
2022-11-14T02:52:49.402Z,31.98
2022-11-14T02:55:16.100Z,34.05
2022-11-14T02:57:42.690Z,32.67
2022-11-14T03:00:14.587Z,30.13
2022-11-14T03:02:41.902Z,35.95
2022-11-14T03:05:08.784Z,29.02
2022-11-14T03:07:35.535Z,35.40
2022-11-14T03:10:02.640Z,38.78
2022-11-14T03:12:29.353Z,38.75
2022-11-14T03:14:55.936Z,30.58
2022-11-14T03:17:24.619Z,33.72
2022-11-14T03:19:51.287Z,28.58
2022-11-14T03:22:17.886Z,38.28
2022-11-14T03:24:44.511Z,30.90
2022-11-14T03:27:11.114Z,32.58
2022-11-14T03:29:37.684Z,30.67
2022-11-14T03:32:04.558Z,31.02
2022-11-14T03:34:31.127Z,37.33
2022-11-14T03:36:57.825Z,31.98
2022-11-14T03:39:24.417Z,28.73
2022-11-14T03:41:51.350Z,32.10
2022-11-14T03:44:18.027Z,32.22
2022-11-14T03:46:44.630Z,34.60
2022-11-14T03:49:11.199Z,32.13
2022-11-14T03:51:37.838Z,32.92
2022-11-14T03:54:04.588Z,34.20
2022-11-14T03:56:31.130Z,41.05
2022-11-14T03:58:57.797Z,29.90
2022-11-14T04:01:24.456Z,34.38
2022-11-14T04:03:51.121Z,34.17
2022-11-14T04:06:17.679Z,32.15
2022-11-14T04:08:44.434Z,33.65
2022-11-14T04:11:11.059Z,30.58
2022-11-14T04:13:37.749Z,32.58
2022-11-14T04:16:04.967Z,31.80
2022-11-14T04:18:31.846Z,34.78
2022-11-14T04:20:58.673Z,36.67
2022-11-14T04:23:25.282Z,35.63
2022-11-14T04:25:51.823Z,30.83
2022-11-14T04:28:18.480Z,33.20
2022-11-14T04:30:45.339Z,33.85
2022-11-14T04:33:12.198Z,32.55
2022-11-14T04:35:38.807Z,32.35
2022-11-14T04:38:05.501Z,30.00
2022-11-14T04:40:32.119Z,34.35
2022-11-14T04:42:58.673Z,30.73
2022-11-14T04:45:25.321Z,29.52
2022-11-14T04:47:51.968Z,34.22
2022-11-14T04:50:18.818Z,33.25
2022-11-14T04:52:45.406Z,38.38
2022-11-14T04:55:15.273Z,31.10
2022-11-14T04:57:41.829Z,33.50
2022-11-14T05:00:09.050Z,33.83
2022-11-14T05:02:35.659Z,31.45
2022-11-14T05:05:02.261Z,33.25
2022-11-14T05:07:28.948Z,35.03
2022-11-14T05:09:55.563Z,36.60
2022-11-14T05:12:22.116Z,34.60
2022-11-14T05:14:48.811Z,35.03
2022-11-14T05:17:15.400Z,32.13
2022-11-14T05:19:45.239Z,34.22
2022-11-14T05:22:11.873Z,37.15
2022-11-14T05:24:38.411Z,35.15
2022-11-14T05:27:05.026Z,34.88
2022-11-14T05:29:31.835Z,31.42
2022-11-14T05:31:58.446Z,35.22
2022-11-14T05:34:25.259Z,44.05
2022-11-14T05:36:51.880Z,37.78
2022-11-14T05:39:19.318Z,36.83
2022-11-14T05:41:48.242Z,42.83
2022-11-14T05:44:14.805Z,36.03
2022-11-14T05:46:41.503Z,36.40
2022-11-14T05:49:08.097Z,34.58
2022-11-14T05:51:34.660Z,35.88
2022-11-14T05:54:01.228Z,34.65
2022-11-14T05:56:27.843Z,34.72
2022-11-14T05:58:54.390Z,35.45
2022-11-14T06:01:20.989Z,34.08
2022-11-14T06:03:48.895Z,37.33
2022-11-14T06:06:18.331Z,44.50
2022-11-14T06:08:44.935Z,36.55
2022-11-14T06:11:16.505Z,35.70
2022-11-14T06:13:44.052Z,38.88
2022-11-14T06:16:13.443Z,42.20
2022-11-14T06:18:40.533Z,36.25
2022-11-14T06:21:23.326Z,33.85
2022-11-14T06:23:50.460Z,33.58
2022-11-14T06:26:23.857Z,33.97
2022-11-14T06:28:52.315Z,33.83
2022-11-14T06:31:21.026Z,35.00
2022-11-14T06:33:48.210Z,39.45
2022-11-14T06:36:15.287Z,36.22
2022-11-14T06:38:43.114Z,37.28
2022-11-14T06:41:12.129Z,40.42
2022-11-14T06:43:42.094Z,33.45
2022-11-14T06:46:11.305Z,37.28
2022-11-14T06:48:38.846Z,37.95
2022-11-14T06:51:05.993Z,38.33
2022-11-14T06:53:35.768Z,37.42
2022-11-14T06:56:18.173Z,35.78
2022-11-14T06:58:47.149Z,37.00
2022-11-14T07:01:15.408Z,35.30
2022-11-14T07:03:43.532Z,38.58
2022-11-14T07:06:15.576Z,36.63
2022-11-14T07:08:42.588Z,40.40
2022-11-14T07:11:12.925Z,36.75
2022-11-14T07:13:39.549Z,38.25
2022-11-14T07:16:06.448Z,41.17
2022-11-14T07:18:33.995Z,38.28
2022-11-14T07:21:04.140Z,42.03
2022-11-14T07:23:31.955Z,42.33
2022-11-14T07:26:03.191Z,36.40
2022-11-14T07:28:30.277Z,41.28
2022-11-14T07:30:57.228Z,41.15
2022-11-14T07:33:23.805Z,44.47
2022-11-14T07:35:51.714Z,47.05
2022-11-14T07:38:18.270Z,41.25
2022-11-14T07:40:59.082Z,36.95
2022-11-14T07:43:26.941Z,39.55
2022-11-14T07:45:53.964Z,43.15
2022-11-14T07:48:21.923Z,39.20
2022-11-14T07:50:48.621Z,36.88
2022-11-14T07:53:16.703Z,35.17
2022-11-14T07:55:43.299Z,39.53
2022-11-14T07:58:10.113Z,39.78
2022-11-14T08:00:36.737Z,29.33
2022-11-14T08:03:03.408Z,37.33
2022-11-14T08:05:29.970Z,35.42
2022-11-14T08:07:56.594Z,28.77
2022-11-14T08:10:23.162Z,32.40
2022-11-14T08:13:24.859Z,29.52
2022-11-14T08:15:45.728Z,31.60
2022-11-14T08:18:12.409Z,35.10
2022-11-14T08:20:38.993Z,32.20
2022-11-14T08:23:07.219Z,31.90
2022-11-14T08:25:33.989Z,38.40
2022-11-14T08:28:00.570Z,38.33
2022-11-14T08:30:27.975Z,31.75
2022-11-14T08:32:54.730Z,30.55
2022-11-14T08:35:22.712Z,27.75
2022-11-14T08:37:49.380Z,34.00
2022-11-14T08:40:16.165Z,31.25
2022-11-14T08:42:42.760Z,34.10
2022-11-14T08:45:10.813Z,31.33
2022-11-14T08:47:37.443Z,30.92
2022-11-14T08:50:04.504Z,32.38
2022-11-14T08:52:31.076Z,36.00
2022-11-14T08:54:57.674Z,32.17
2022-11-14T08:57:27.715Z,32.10
2022-11-14T08:59:55.428Z,31.95
2022-11-14T09:02:22.005Z,30.58
2022-11-14T09:04:48.647Z,30.83
2022-11-14T09:07:15.460Z,31.10
2022-11-14T09:09:42.242Z,25.15
2022-11-14T09:12:08.816Z,30.20
2022-11-14T09:14:35.498Z,29.70
2022-11-14T09:17:05.958Z,34.88
2022-11-14T09:19:33.972Z,26.92
2022-11-14T09:22:03.805Z,28.13
2022-11-14T09:24:30.430Z,31.30
2022-11-14T09:26:57.393Z,27.58
2022-11-14T09:29:24.074Z,31.25
2022-11-14T09:31:52.424Z,31.88
2022-11-14T09:34:19.129Z,33.03
2022-11-14T09:36:46.662Z,23.67
2022-11-14T09:39:13.429Z,29.75
2022-11-14T09:42:01.351Z,23.20
2022-11-14T09:44:42.054Z,26.13
2022-11-14T09:47:18.100Z,21.58
2022-11-14T09:49:51.843Z,25.00
2022-11-14T09:52:38.642Z,24.55
2022-11-14T09:57:47.670Z,21.80
2022-11-14T10:00:15.602Z,24.60
2022-11-14T10:02:52.557Z,25.20
2022-11-14T10:05:42.214Z,27.02
2022-11-14T10:08:32.069Z,28.27
2022-11-14T10:11:07.799Z,28.90
2022-11-14T10:13:50.040Z,22.67
2022-11-14T10:16:31.843Z,19.30
2022-11-14T10:19:14.849Z,24.38
2022-11-14T10:21:42.469Z,21.10
2022-11-14T10:24:44.392Z,28.38
2022-11-14T10:27:19.119Z,21.15
2022-11-14T10:29:57.633Z,16.70
2022-11-14T10:32:39.454Z,20.52
2022-11-14T10:35:24.358Z,25.15
2022-11-14T10:38:01.644Z,19.70
2022-11-14T10:40:38.951Z,16.50
2022-11-14T10:43:28.275Z,18.42
2022-11-14T10:46:03.025Z,17.95
2022-11-14T10:48:40.777Z,18.23
2022-11-14T10:51:23.789Z,16.85
2022-11-14T10:54:05.907Z,21.77
2022-11-14T10:56:33.225Z,18.70
2022-11-14T10:58:59.819Z,14.57
2022-11-14T11:01:36.342Z,18.33
2022-11-14T11:04:28.791Z,20.10
2022-11-14T11:06:58.352Z,14.50
2022-11-14T11:09:45.795Z,14.32
2022-11-14T11:12:19.994Z,18.38
2022-11-14T11:14:48.952Z,17.40
2022-11-14T11:17:20.601Z,19.77
2022-11-14T11:19:48.976Z,21.45
2022-11-14T11:22:40.326Z,19.40
2022-11-14T11:25:23.636Z,23.13
2022-11-14T11:28:07.352Z,17.48
2022-11-14T11:30:34.120Z,12.05
2022-11-14T11:33:16.032Z,9.52
2022-11-14T11:35:43.711Z,9.10
2022-11-14T11:38:15.684Z,8.82
2022-11-14T11:40:46.455Z,12.90
2022-11-14T11:43:39.219Z,12.73
2022-11-14T11:46:17.160Z,8.65
2022-11-14T11:48:48.236Z,9.48
2022-11-14T11:51:19.728Z,8.68
2022-11-14T11:53:57.350Z,9.50
2022-11-14T11:56:30.693Z,13.18
2022-11-14T11:59:25.738Z,11.85
2022-11-14T12:01:52.511Z,13.40
2022-11-14T12:04:19.224Z,13.60
2022-11-14T12:06:56.377Z,12.95
2022-11-14T12:09:48.649Z,12.15
2022-11-14T12:12:44.141Z,13.50
2022-11-14T12:15:27.159Z,18.27
2022-11-14T12:18:04.678Z,9.27
2022-11-14T12:20:32.366Z,8.95
2022-11-14T12:23:07.052Z,14.20
2022-11-14T12:25:44.449Z,10.63
2022-11-14T12:28:23.703Z,7.15
2022-11-14T12:30:57.145Z,10.85
2022-11-14T12:33:29.519Z,9.23
2022-11-14T12:36:00.198Z,11.50
2022-11-14T12:38:34.919Z,9.25
2022-11-14T12:41:02.581Z,10.02
2022-11-14T12:43:36.410Z,12.85
2022-11-14T12:46:09.733Z,9.52
2022-11-14T12:48:38.460Z,7.88
2022-11-14T12:51:28.979Z,9.57
2022-11-14T12:53:57.494Z,6.47
2022-11-14T12:56:53.938Z,7.07
2022-11-14T12:59:35.443Z,9.60
2022-11-14T13:02:22.234Z,4.55
2022-11-14T13:05:11.464Z,5.13
2022-11-14T13:07:54.406Z,6.30
2022-11-14T13:10:31.795Z,7.80
2022-11-14T13:13:26.711Z,8.10
2022-11-14T13:16:11.066Z,5.72
2022-11-14T13:19:06.406Z,7.85
2022-11-14T13:21:48.184Z,6.63
2022-11-14T13:24:20.503Z,5.22
2022-11-14T13:26:51.212Z,6.13
2022-11-14T13:29:48.699Z,10.68
2022-11-14T13:32:55.110Z,9.82
2022-11-14T13:35:41.029Z,8.40
2022-11-14T13:38:22.997Z,7.88
2022-11-14T13:41:11.041Z,9.55
2022-11-14T13:43:53.154Z,8.23
2022-11-14T13:46:50.563Z,8.68
2022-11-14T13:49:49.988Z,4.55
2022-11-14T13:52:17.166Z,8.50
2022-11-14T13:54:47.859Z,9.52
2022-11-14T13:57:28.161Z,10.20
2022-11-14T14:00:16.990Z,8.75
2022-11-14T14:03:11.094Z,13.10
2022-11-14T14:05:46.001Z,10.15
2022-11-14T14:08:37.908Z,6.57
2022-11-14T14:11:26.545Z,10.00
2022-11-14T14:14:14.052Z,10.07
2022-11-14T14:16:51.892Z,10.35
2022-11-14T14:19:36.895Z,8.68
2022-11-14T14:22:15.811Z,9.43
2022-11-14T14:24:53.617Z,9.40
2022-11-14T14:27:50.240Z,6.72
2022-11-14T14:30:18.499Z,11.80
2022-11-14T14:33:10.196Z,8.30
2022-11-14T14:35:40.887Z,7.68
2022-11-14T14:38:13.656Z,12.45
2022-11-14T14:40:42.421Z,7.05
2022-11-14T14:43:21.598Z,7.75
2022-11-14T14:45:53.225Z,8.27
2022-11-14T14:48:25.580Z,6.55
2022-11-14T14:50:55.040Z,10.43
2022-11-14T14:53:23.313Z,11.63
2022-11-14T14:56:00.686Z,9.85
2022-11-14T14:58:27.781Z,7.65
2022-11-14T15:01:10.690Z,18.00
2022-11-14T15:03:49.537Z,8.77
2022-11-14T15:06:39.185Z,8.60
2022-11-14T15:09:16.865Z,16.02
2022-11-14T15:11:46.366Z,14.55
2022-11-14T15:14:17.138Z,11.55
2022-11-14T15:16:46.746Z,10.90
2022-11-14T15:19:19.187Z,13.00
2022-11-14T15:21:46.415Z,9.30
2022-11-14T15:24:17.385Z,9.38
2022-11-14T15:26:45.857Z,11.30
2022-11-14T15:29:23.268Z,14.95
2022-11-14T15:31:54.059Z,10.85
2022-11-14T15:34:29.823Z,11.10
2022-11-14T15:37:19.434Z,12.00
2022-11-14T15:39:46.926Z,9.05
2022-11-14T15:42:28.248Z,6.18
2022-11-14T15:44:55.855Z,14.13
2022-11-14T15:47:28.484Z,9.02
2022-11-14T15:50:14.732Z,6.45
2022-11-14T15:52:52.177Z,9.50
2022-11-14T15:55:21.710Z,10.45
2022-11-14T15:58:00.992Z,6.35
2022-11-14T16:00:35.170Z,7.97
2022-11-14T16:03:02.222Z,9.38
2022-11-14T16:05:31.434Z,7.07
2022-11-14T16:07:58.189Z,11.15
2022-11-14T16:10:27.344Z,8.38
2022-11-14T16:12:54.340Z,9.80
2022-11-14T16:15:21.756Z,7.57
2022-11-14T16:17:49.967Z,9.10
2022-11-14T16:20:20.087Z,15.60
2022-11-14T16:22:48.629Z,19.30
2022-11-14T16:25:18.635Z,17.10
2022-11-14T16:27:45.989Z,15.07
2022-11-14T16:30:14.784Z,12.63
2022-11-14T16:32:46.247Z,11.15
2022-11-14T16:35:22.995Z,12.95
2022-11-14T16:37:50.381Z,15.77
2022-11-14T16:40:22.870Z,14.85
2022-11-14T16:42:50.382Z,9.48
2022-11-14T16:45:17.844Z,11.23
2022-11-14T16:47:44.517Z,9.52
2022-11-14T16:50:11.145Z,12.75
2022-11-14T16:52:39.258Z,10.85
2022-11-14T16:55:07.458Z,15.05
2022-11-14T16:57:34.633Z,16.73
2022-11-14T17:00:07.913Z,34.55
2022-11-14T17:02:34.490Z,20.40
2022-11-14T17:05:01.393Z,21.20
2022-11-14T17:07:32.662Z,16.58
2022-11-14T17:10:00.511Z,17.05
2022-11-14T17:12:28.488Z,13.52
2022-11-14T17:14:55.246Z,17.15
2022-11-14T17:17:21.931Z,9.00
2022-11-14T17:19:48.690Z,10.25
2022-11-14T17:22:17.531Z,9.23
2022-11-14T17:24:48.016Z,12.85
2022-11-14T17:27:14.596Z,14.20
2022-11-14T17:29:41.181Z,11.73
2022-11-14T17:32:07.896Z,13.43
2022-11-14T17:34:34.535Z,13.30
2022-11-14T17:37:01.095Z,14.38
2022-11-14T17:39:27.875Z,13.82
2022-11-14T17:41:54.455Z,12.98
2022-11-14T17:44:21.217Z,17.38
2022-11-14T17:46:48.352Z,22.35
2022-11-14T17:49:14.972Z,26.95
2022-11-14T17:51:41.555Z,27.08
2022-11-14T17:54:08.908Z,21.70
2022-11-14T17:56:35.559Z,18.58
2022-11-14T17:59:02.594Z,12.80
2022-11-14T18:01:31.378Z,16.15
2022-11-14T18:04:03.010Z,14.43
2022-11-14T18:06:31.212Z,13.93
2022-11-14T18:08:57.913Z,14.60
2022-11-14T18:11:24.600Z,41.22
2022-11-14T18:13:54.449Z,52.05
2022-11-14T18:16:21.139Z,27.30
2022-11-14T18:18:47.767Z,20.85
2022-11-14T18:21:17.071Z,14.68
2022-11-14T18:23:43.670Z,15.25
2022-11-14T18:26:12.032Z,9.18
2022-11-14T18:28:39.104Z,13.93
2022-11-14T18:31:10.067Z,9.65
2022-11-14T18:33:39.470Z,20.80
2022-11-14T18:36:09.105Z,11.48
2022-11-14T18:38:35.916Z,17.20
2022-11-14T18:41:07.274Z,18.73
2022-11-14T18:43:34.259Z,18.60
2022-11-14T18:46:05.066Z,19.13
2022-11-14T18:48:31.840Z,18.92
2022-11-14T18:51:04.078Z,15.27
2022-11-14T18:53:33.061Z,15.50
2022-11-14T18:56:03.795Z,18.48
2022-11-14T18:58:30.486Z,15.48
2022-11-14T19:00:57.166Z,15.35
2022-11-14T19:03:23.849Z,14.05
2022-11-14T19:05:50.520Z,39.33
2022-11-14T19:08:18.537Z,67.05
2022-11-14T19:10:45.518Z,26.80
2022-11-14T19:13:12.117Z,21.67
2022-11-14T19:15:38.789Z,15.05
2022-11-14T19:18:05.422Z,17.30
2022-11-14T19:20:32.087Z,13.38
2022-11-14T19:22:59.191Z,16.88
2022-11-14T19:25:25.829Z,18.02
2022-11-14T19:27:52.483Z,18.70
2022-11-14T19:30:19.192Z,15.68
2022-11-14T19:32:46.052Z,18.20
2022-11-14T19:35:18.971Z,18.48
2022-11-14T19:37:47.061Z,15.75
2022-11-14T19:40:14.186Z,20.33
2022-11-14T19:42:40.871Z,20.23
2022-11-14T19:45:08.057Z,24.00
2022-11-14T19:47:34.707Z,28.77
2022-11-14T19:50:01.520Z,24.83
2022-11-14T19:52:28.326Z,30.63
2022-11-14T19:54:56.075Z,22.38
2022-11-14T19:57:22.732Z,24.75
2022-11-14T19:59:49.298Z,19.65
2022-11-14T20:02:16.681Z,22.17
2022-11-14T20:04:46.727Z,26.05
2022-11-14T20:07:13.456Z,17.63
2022-11-14T20:09:41.399Z,23.30
2022-11-14T20:12:08.098Z,21.25
2022-11-14T20:14:34.731Z,23.02
2022-11-14T20:17:01.397Z,22.92
2022-11-14T20:19:28.377Z,27.55
2022-11-14T20:21:55.615Z,24.38
2022-11-14T20:24:24.424Z,18.10
2022-11-14T20:26:51.259Z,20.92
2022-11-14T20:29:17.919Z,21.83
2022-11-14T20:31:46.951Z,48.65
2022-11-14T20:34:13.684Z,31.42
2022-11-14T20:37:09.200Z,27.67
2022-11-14T20:39:31.568Z,29.77
2022-11-14T20:41:58.495Z,36.40
2022-11-14T20:44:25.267Z,36.95
2022-11-14T20:46:51.927Z,40.50
2022-11-14T20:49:18.590Z,32.60
2022-11-14T20:51:45.223Z,33.25
2022-11-14T20:54:26.959Z,27.77
2022-11-14T20:56:53.672Z,20.92
2022-11-14T20:59:20.320Z,18.00
2022-11-14T21:01:50.194Z,19.70
2022-11-14T21:04:16.962Z,21.17
2022-11-14T21:06:43.608Z,15.52
2022-11-14T21:09:10.331Z,14.30
2022-11-14T21:11:36.894Z,12.75
2022-11-14T21:14:05.523Z,14.75
2022-11-14T21:16:35.240Z,12.80
2022-11-14T21:19:03.695Z,12.68
2022-11-14T21:21:34.390Z,15.70
2022-11-14T21:24:01.268Z,16.50
2022-11-14T21:26:35.166Z,13.50
2022-11-14T21:29:06.191Z,18.13
2022-11-14T21:31:36.738Z,15.77
2022-11-14T21:34:06.373Z,18.88
2022-11-14T21:36:48.656Z,16.02
2022-11-14T21:39:16.441Z,15.27
2022-11-14T21:41:44.408Z,20.23
2022-11-14T21:44:13.776Z,16.48
2022-11-14T21:46:40.922Z,12.73
2022-11-14T21:49:07.599Z,13.80
2022-11-14T21:51:34.382Z,15.73
2022-11-14T21:54:06.351Z,15.25
2022-11-14T21:56:35.561Z,14.38
2022-11-14T21:59:18.980Z,17.10
2022-11-14T22:02:03.979Z,14.43
2022-11-14T22:04:31.656Z,18.70
2022-11-14T22:06:59.695Z,13.93
2022-11-14T22:09:28.244Z,13.30
2022-11-14T22:11:55.865Z,17.20
2022-11-14T22:14:22.663Z,17.27
2022-11-14T22:16:49.427Z,18.60
2022-11-14T22:19:16.123Z,16.33
2022-11-14T22:21:42.697Z,12.45
2022-11-14T22:24:09.339Z,13.30
2022-11-14T22:26:39.733Z,20.98
2022-11-14T22:29:07.299Z,16.95
2022-11-14T22:31:33.913Z,21.58
2022-11-14T22:34:00.617Z,18.27
2022-11-14T22:36:27.903Z,20.90
2022-11-14T22:38:56.392Z,18.00
2022-11-14T22:41:32.300Z,14.13
2022-11-14T22:46:27.597Z,15.07
2022-11-14T22:48:55.006Z,21.65
2022-11-14T22:51:23.928Z,17.10
2022-11-14T22:53:53.052Z,15.55
2022-11-14T22:56:21.904Z,16.05
2022-11-14T22:58:49.034Z,13.40
2022-11-14T23:01:19.899Z,17.88
2022-11-14T23:03:48.348Z,12.80
2022-11-14T23:06:17.646Z,12.77
2022-11-14T23:08:44.997Z,14.88
2022-11-14T23:11:14.888Z,17.92
2022-11-14T23:13:45.223Z,12.20
2022-11-14T23:16:14.385Z,12.05
2022-11-14T23:18:41.785Z,21.63
2022-11-14T23:21:14.672Z,17.13
2022-11-14T23:23:42.176Z,23.48
2022-11-14T23:26:12.075Z,33.78
2022-11-14T23:28:39.217Z,35.58
2022-11-14T23:31:06.881Z,33.55
2022-11-14T23:33:34.159Z,25.52
2022-11-14T23:36:01.131Z,22.20
2022-11-14T23:38:30.541Z,22.70
2022-11-14T23:40:59.503Z,29.65
2022-11-14T23:43:27.060Z,23.45
2022-11-14T23:45:53.905Z,25.95
2022-11-14T23:48:22.382Z,37.28
2022-11-14T23:50:51.918Z,25.77
2022-11-14T23:53:19.130Z,25.98
2022-11-14T23:56:01.525Z,24.20
2022-11-14T23:58:29.444Z,30.35
